createdAt,value
2018-07-14T00:00:08.864Z,91.40
2018-07-14T00:02:37.943Z,91.30
2018-07-14T00:05:07.004Z,91.90
2018-07-14T00:07:36.758Z,92.00
2018-07-14T00:10:05.904Z,92.00
2018-07-14T00:12:35.236Z,91.70
2018-07-14T00:15:04.320Z,91.20
2018-07-14T00:20:02.123Z,91.10
2018-07-14T00:22:31.196Z,90.80
2018-07-14T00:27:29.047Z,91.00
2018-07-14T00:29:58.221Z,90.60
2018-07-14T00:32:27.294Z,90.60
2018-07-14T00:34:56.351Z,90.50
2018-07-14T00:37:25.427Z,90.40
2018-07-14T00:39:54.483Z,90.30
2018-07-14T00:42:23.568Z,90.50
2018-07-14T00:47:21.370Z,90.60
2018-07-14T00:49:50.419Z,90.70
2018-07-14T00:52:19.492Z,90.80
2018-07-14T00:54:48.580Z,91.00
2018-07-14T00:57:17.635Z,90.80
2018-07-14T01:07:13.684Z,90.60
2018-07-14T01:09:46.257Z,91.00
2018-07-14T01:12:15.322Z,91.00
2018-07-14T01:14:44.404Z,91.00
2018-07-14T01:17:13.472Z,91.20
2018-07-14T01:19:42.571Z,91.20
2018-07-14T01:27:09.064Z,91.20
2018-07-14T01:29:38.152Z,91.00
2018-07-14T01:32:07.212Z,91.00
2018-07-14T01:34:36.292Z,91.20
2018-07-14T01:37:05.379Z,91.40
2018-07-14T01:39:34.459Z,91.50
2018-07-14T01:42:03.536Z,91.50
2018-07-14T01:44:32.633Z,91.50
2018-07-14T01:47:01.712Z,91.70
2018-07-14T01:52:00.148Z,92.10
2018-07-14T01:54:29.264Z,92.40
2018-07-14T01:56:58.337Z,92.60
2018-07-14T01:59:27.427Z,92.80
2018-07-14T02:01:56.488Z,92.80
2018-07-14T02:04:25.590Z,93.10
2018-07-14T02:06:54.648Z,92.80
2018-07-14T02:09:23.740Z,93.10
2018-07-14T02:11:52.788Z,93.10
2018-07-14T02:16:50.560Z,93.20
2018-07-14T02:21:48.600Z,93.50
2018-07-14T02:24:17.675Z,93.00
2018-07-14T02:26:46.724Z,93.10
2018-07-14T02:29:15.776Z,93.10
2018-07-14T02:31:44.875Z,93.10
2018-07-14T02:34:13.924Z,93.10
2018-07-14T02:36:42.984Z,93.00
2018-07-14T02:39:12.036Z,93.40
2018-07-14T02:41:41.111Z,93.20
2018-07-14T02:44:10.156Z,93.10
2018-07-14T02:46:39.221Z,93.10
2018-07-14T02:56:34.577Z,93.70
2018-07-14T03:01:32.499Z,93.60
2018-07-14T03:04:01.644Z,93.70
2018-07-14T03:06:30.716Z,93.80
2018-07-14T03:08:59.808Z,93.80
2018-07-14T03:11:28.900Z,94.00
2018-07-14T03:13:57.969Z,94.20
2018-07-14T03:16:27.054Z,94.00
2018-07-14T03:18:56.120Z,94.00
2018-07-14T03:21:25.203Z,94.20
2018-07-14T03:23:54.272Z,94.30
2018-07-14T03:26:23.360Z,94.40
2018-07-14T03:28:52.431Z,94.60
2018-07-14T03:31:21.548Z,94.70
2018-07-14T03:33:50.612Z,94.90
2018-07-14T03:38:48.766Z,94.90
2018-07-14T03:41:17.852Z,94.70
2018-07-14T03:43:46.919Z,94.70
2018-07-14T03:46:16.008Z,94.50
2018-07-14T03:48:45.084Z,94.50
2018-07-14T03:53:42.860Z,94.70
2018-07-14T03:58:40.672Z,94.90
2018-07-14T04:01:09.740Z,94.70
2018-07-14T04:03:38.884Z,94.60
2018-07-14T04:06:08.056Z,94.80
2018-07-14T04:08:37.206Z,94.40
2018-07-14T04:11:06.280Z,94.30
2018-07-14T04:13:35.497Z,94.40
2018-07-14T04:16:04.764Z,94.60
2018-07-14T04:18:33.848Z,94.60
2018-07-14T04:21:02.917Z,94.40
2018-07-14T04:23:32.004Z,94.30
2018-07-14T04:26:01.072Z,94.30
2018-07-14T04:28:30.172Z,94.00
2018-07-14T04:30:59.236Z,94.10
2018-07-14T04:33:28.324Z,94.00
2018-07-14T04:35:57.384Z,94.00
2018-07-14T04:38:26.469Z,93.90
2018-07-14T04:40:55.528Z,93.80
2018-07-14T04:43:24.612Z,93.80
2018-07-14T04:45:53.672Z,93.70
2018-07-14T04:48:22.787Z,93.50
2018-07-14T04:53:20.580Z,93.40
2018-07-14T04:55:49.644Z,93.20
2018-07-14T04:58:18.731Z,92.90
2018-07-14T05:00:47.808Z,92.80
2018-07-14T05:03:16.891Z,92.50
2018-07-14T05:05:45.964Z,92.10
2018-07-14T05:08:15.073Z,91.90
2018-07-14T05:10:44.137Z,91.70
2018-07-14T05:15:41.988Z,91.60
2018-07-14T05:18:11.081Z,91.20
2018-07-14T05:20:40.143Z,90.90
2018-07-14T05:23:09.255Z,90.90
2018-07-14T05:25:38.548Z,90.70
2018-07-14T05:28:07.635Z,90.40
2018-07-14T05:30:36.729Z,90.20
2018-07-14T05:33:05.836Z,90.10
2018-07-14T05:35:35.359Z,90.00
2018-07-14T05:38:04.477Z,89.80
2018-07-14T05:40:33.558Z,88.80
2018-07-14T05:43:02.624Z,89.00
2018-07-14T05:45:31.715Z,88.10
2018-07-14T05:48:00.843Z,88.10
2018-07-14T05:50:29.913Z,87.50
2018-07-14T05:52:58.963Z,87.10
2018-07-14T05:55:28.235Z,86.90
2018-07-14T05:57:57.276Z,85.70
2018-07-14T06:02:55.063Z,84.50
2018-07-14T06:05:24.132Z,83.60
2018-07-14T06:07:53.213Z,82.70
2018-07-14T06:10:22.345Z,81.60
2018-07-14T06:12:51.392Z,82.10
2018-07-14T06:15:20.480Z,82.40
2018-07-14T06:17:49.519Z,82.50
2018-07-14T06:20:18.593Z,82.00
2018-07-14T06:22:47.649Z,82.20
2018-07-14T06:25:16.733Z,82.40
2018-07-14T06:27:45.783Z,81.60
2018-07-14T06:30:14.857Z,81.00
2018-07-14T06:32:43.908Z,79.40
2018-07-14T06:37:41.648Z,79.10
2018-07-14T06:40:10.773Z,78.60
2018-07-14T06:42:39.820Z,78.50
2018-07-14T06:45:08.883Z,78.10
2018-07-14T06:47:37.932Z,79.00
2018-07-14T06:50:07.036Z,80.40
2018-07-14T06:52:36.108Z,81.60
2018-07-14T06:55:05.194Z,82.80
2018-07-14T06:57:34.268Z,83.50
2018-07-14T07:02:32.070Z,82.30
2018-07-14T07:05:01.245Z,82.10
2018-07-14T07:07:30.303Z,82.70
2018-07-14T07:09:59.404Z,80.90
2018-07-14T07:12:28.493Z,80.20
2018-07-14T07:14:57.560Z,80.00
2018-07-14T07:17:26.649Z,80.50
2018-07-14T07:19:55.712Z,79.10
2018-07-14T07:24:53.512Z,78.50
2018-07-14T07:27:22.600Z,78.20
2018-07-14T07:32:20.388Z,77.40
2018-07-14T07:34:49.453Z,76.00
2018-07-14T07:37:18.544Z,75.30
2018-07-14T07:39:47.622Z,74.90
2018-07-14T07:42:16.715Z,75.20
2018-07-14T07:44:45.935Z,75.60
2018-07-14T07:47:15.021Z,74.60
2018-07-14T07:49:44.079Z,73.40
2018-07-14T07:52:13.160Z,72.10
2018-07-14T07:54:42.224Z,71.70
2018-07-14T07:57:11.505Z,71.00
2018-07-14T07:59:40.784Z,71.10
2018-07-14T08:02:10.313Z,69.80
2018-07-14T08:04:39.592Z,70.10
2018-07-14T08:07:09.323Z,69.00
2018-07-14T08:09:38.710Z,68.80
2018-07-14T08:12:07.852Z,67.20
2018-07-14T08:14:36.929Z,67.70
2018-07-14T08:17:05.992Z,66.40
2018-07-14T08:19:35.036Z,67.10
2018-07-14T08:22:04.096Z,66.40
2018-07-14T08:24:33.144Z,65.20
2018-07-14T08:31:59.567Z,63.40
2018-07-14T08:34:28.617Z,62.90
2018-07-14T08:39:26.363Z,60.30
2018-07-14T08:41:55.437Z,59.50
2018-07-14T08:44:24.476Z,59.50
2018-07-14T08:46:53.516Z,59.20
2018-07-14T08:49:22.572Z,58.40
2018-07-14T08:51:51.620Z,59.40
2018-07-14T08:54:20.685Z,59.50
2018-07-14T08:56:49.725Z,58.80
2018-07-14T08:59:18.784Z,58.90
2018-07-14T09:01:47.824Z,59.60
2018-07-14T09:04:16.888Z,60.20
2018-07-14T09:06:45.929Z,59.70
2018-07-14T09:09:15.024Z,59.50
2018-07-14T09:11:44.203Z,59.00
2018-07-14T09:14:13.292Z,58.70
2018-07-14T09:16:42.352Z,58.70
2018-07-14T09:19:11.432Z,59.40
2018-07-14T09:26:37.892Z,55.40
2018-07-14T09:34:04.440Z,54.80
2018-07-14T09:36:33.516Z,55.20
2018-07-14T09:39:02.600Z,54.50
2018-07-14T09:41:31.656Z,55.20
2018-07-14T09:46:29.416Z,54.00
2018-07-14T09:48:58.501Z,53.50
2018-07-14T09:51:27.567Z,53.10
2018-07-14T09:53:56.644Z,53.00
2018-07-14T09:56:25.705Z,53.40
2018-07-14T09:58:54.781Z,53.80
2018-07-14T10:01:23.843Z,53.40
2018-07-14T10:03:52.912Z,53.20
2018-07-14T10:06:21.973Z,52.10
2018-07-14T10:08:51.051Z,52.10
2018-07-14T10:11:20.095Z,50.90
2018-07-14T10:13:49.153Z,52.30
2018-07-14T10:16:18.192Z,51.20
2018-07-14T10:18:47.300Z,49.50
2018-07-14T10:23:44.991Z,51.60
2018-07-14T10:26:14.048Z,48.10
2018-07-14T10:28:43.083Z,49.30
2018-07-14T10:31:12.141Z,49.60
2018-07-14T10:33:41.260Z,48.10
2018-07-14T10:36:10.268Z,48.80
2018-07-14T10:38:39.352Z,50.00
2018-07-14T10:41:08.500Z,48.90
2018-07-14T10:43:37.532Z,48.20
2018-07-14T10:51:03.948Z,45.70
2018-07-14T10:53:32.981Z,45.70
2018-07-14T10:56:02.045Z,46.70
2018-07-14T10:58:31.088Z,46.30
2018-07-14T11:01:00.149Z,44.70
2018-07-14T11:03:29.196Z,43.40
2018-07-14T11:05:58.260Z,43.40
2018-07-14T11:08:27.344Z,44.20
2018-07-14T11:10:56.427Z,43.60
2018-07-14T11:13:25.492Z,44.40
2018-07-14T11:15:54.567Z,43.10
2018-07-14T11:18:23.624Z,43.00
2018-07-14T11:20:52.699Z,42.00
2018-07-14T11:23:21.760Z,42.50
2018-07-14T11:25:50.836Z,43.30
2018-07-14T11:28:19.904Z,43.70
2018-07-14T11:30:48.996Z,43.20
2018-07-14T11:33:18.058Z,42.30
2018-07-14T11:35:47.135Z,42.50
2018-07-14T11:38:16.204Z,43.10
2018-07-14T11:40:45.293Z,43.10
2018-07-14T11:43:14.363Z,43.90
2018-07-14T11:45:43.457Z,42.80
2018-07-14T11:48:12.516Z,42.70
2018-07-14T11:50:42.458Z,42.50
2018-07-14T11:53:11.541Z,43.80
2018-07-14T11:55:40.600Z,43.30
2018-07-14T11:58:09.682Z,42.40
2018-07-14T12:00:38.740Z,41.90
2018-07-14T12:03:07.821Z,43.60
2018-07-14T12:05:36.877Z,41.80
2018-07-14T12:08:05.955Z,41.70
2018-07-14T12:10:34.996Z,41.10
2018-07-14T12:13:04.064Z,40.50
2018-07-14T12:15:33.104Z,40.50
2018-07-14T12:18:02.176Z,40.50
2018-07-14T12:22:59.952Z,40.10
2018-07-14T12:27:57.688Z,40.30
2018-07-14T12:30:26.746Z,38.00
2018-07-14T12:32:55.898Z,38.20
2018-07-14T12:35:24.939Z,39.10
2018-07-14T12:37:53.995Z,39.90
2018-07-14T12:40:23.052Z,39.20
2018-07-14T12:42:52.120Z,38.70
2018-07-14T12:45:21.161Z,38.50
2018-07-14T12:47:50.218Z,38.10
2018-07-14T12:50:19.256Z,38.60
2018-07-14T12:52:48.311Z,35.90
2018-07-14T12:57:46.044Z,32.60
2018-07-14T13:00:15.151Z,33.40
2018-07-14T13:02:44.238Z,33.00
2018-07-14T13:05:13.289Z,31.60
2018-07-14T13:07:42.389Z,31.30
2018-07-14T13:10:11.464Z,31.00
2018-07-14T13:15:09.240Z,32.30
2018-07-14T13:20:07.163Z,34.80
2018-07-14T13:22:36.224Z,34.90
2018-07-14T13:27:34.004Z,35.00
2018-07-14T13:32:31.843Z,33.90
2018-07-14T13:35:00.955Z,33.50
2018-07-14T13:37:30.024Z,31.20
2018-07-14T13:39:59.108Z,30.60
2018-07-14T13:42:28.159Z,30.60
2018-07-14T13:44:57.256Z,29.70
2018-07-14T13:47:26.328Z,31.70
2018-07-14T13:49:55.404Z,29.40
2018-07-14T13:52:24.464Z,30.20
2018-07-14T13:54:53.555Z,30.90
2018-07-14T14:02:20.004Z,29.90
2018-07-14T14:04:49.089Z,30.70
2018-07-14T14:07:18.157Z,31.10
2018-07-14T14:09:47.240Z,30.00
2018-07-14T14:12:16.308Z,29.30
2018-07-14T14:19:42.716Z,30.50
2018-07-14T14:22:11.787Z,32.70
2018-07-14T14:24:40.838Z,34.60
2018-07-14T14:27:09.900Z,33.80
2018-07-14T14:29:38.948Z,31.10
2018-07-14T14:32:08.051Z,29.30
2018-07-14T14:34:37.108Z,29.10
2018-07-14T14:37:06.178Z,30.00
2018-07-14T14:39:35.220Z,30.10
2018-07-14T14:42:04.293Z,29.20
2018-07-14T14:44:33.397Z,27.60
2018-07-14T14:47:02.468Z,28.40
2018-07-14T14:49:31.507Z,31.30
2018-07-14T14:52:00.580Z,32.00
2018-07-14T14:54:29.644Z,32.70
2018-07-14T14:56:58.740Z,32.60
2018-07-14T14:59:27.788Z,32.50
2018-07-14T15:01:56.844Z,31.50
2018-07-14T15:04:25.887Z,30.00
2018-07-14T15:06:54.969Z,30.40
2018-07-14T15:09:24.104Z,30.00
2018-07-14T15:14:21.860Z,27.30
2018-07-14T15:16:50.920Z,27.70
2018-07-14T15:19:20.014Z,27.20
2018-07-14T15:21:49.063Z,27.20
2018-07-14T15:24:18.132Z,27.20
2018-07-14T15:29:22.624Z,26.70
2018-07-14T15:31:51.684Z,27.00
2018-07-14T15:34:20.771Z,27.30
2018-07-14T15:36:49.836Z,25.60
2018-07-14T15:39:18.920Z,24.30
2018-07-14T15:41:48.004Z,23.80
2018-07-14T15:44:17.071Z,24.70
2018-07-14T15:46:46.135Z,25.20
2018-07-14T15:49:15.211Z,26.20
2018-07-14T15:51:44.283Z,25.40
2018-07-14T15:56:42.072Z,24.60
2018-07-14T15:59:11.132Z,23.30
2018-07-14T16:01:40.223Z,24.50
2018-07-14T16:04:09.297Z,24.30
2018-07-14T16:06:38.383Z,23.30
2018-07-14T16:09:07.876Z,23.30
2018-07-14T16:11:37.101Z,23.80
2018-07-14T16:14:06.276Z,23.80
2018-07-14T16:16:35.441Z,24.00
2018-07-14T16:19:04.593Z,24.30
2018-07-14T16:21:33.656Z,23.80
2018-07-14T16:24:02.800Z,24.20
2018-07-14T16:26:31.860Z,24.60
2018-07-14T16:29:00.901Z,24.10
2018-07-14T16:31:29.968Z,25.30
2018-07-14T16:33:59.012Z,24.90
2018-07-14T16:36:28.072Z,25.30
2018-07-14T16:38:57.111Z,25.60
2018-07-14T16:46:23.583Z,25.20
2018-07-14T16:51:21.314Z,24.30
2018-07-14T16:53:50.359Z,24.90
2018-07-14T16:58:48.216Z,24.60
2018-07-14T17:03:46.309Z,25.30
2018-07-14T17:06:15.365Z,24.00
2018-07-14T17:08:44.679Z,24.10
2018-07-14T17:11:13.745Z,22.90
2018-07-14T17:13:42.829Z,23.60
2018-07-14T17:18:40.600Z,24.90
2018-07-14T17:23:38.480Z,25.60
2018-07-14T17:26:07.544Z,25.50
2018-07-14T17:28:36.733Z,24.20
2018-07-14T17:31:05.908Z,24.80
2018-07-14T17:33:35.000Z,25.10
2018-07-14T17:36:04.065Z,25.80
2018-07-14T17:38:33.147Z,26.10
2018-07-14T17:41:02.220Z,26.00
2018-07-14T17:43:31.313Z,25.70
2018-07-14T17:46:00.595Z,25.80
2018-07-14T17:48:29.816Z,26.10
2018-07-14T17:50:58.995Z,26.10
2018-07-14T17:53:28.076Z,26.20
2018-07-14T17:55:57.152Z,27.00
2018-07-14T18:00:54.913Z,28.80
2018-07-14T18:03:24.000Z,29.00
2018-07-14T18:05:53.059Z,29.10
2018-07-14T18:08:22.159Z,28.90
2018-07-14T18:10:52.589Z,29.30
2018-07-14T18:13:21.670Z,29.50
2018-07-14T18:15:50.767Z,29.40
2018-07-14T18:18:19.825Z,29.90
2018-07-14T18:20:48.917Z,30.50
2018-07-14T18:25:46.700Z,31.10
2018-07-14T18:28:15.759Z,31.10
2018-07-14T18:30:44.968Z,31.40
2018-07-14T18:33:14.028Z,31.80
2018-07-14T18:35:43.104Z,32.20
2018-07-14T18:38:12.157Z,32.80
2018-07-14T18:40:41.231Z,33.10
2018-07-14T18:43:10.288Z,33.50
2018-07-14T18:50:36.731Z,35.80
2018-07-14T18:53:06.003Z,37.20
2018-07-14T18:55:35.088Z,38.60
2018-07-14T18:58:04.148Z,40.00
2018-07-14T19:00:33.224Z,41.10
2018-07-14T19:03:02.288Z,42.20
2018-07-14T19:05:31.361Z,43.00
2018-07-14T19:08:00.432Z,43.80
2018-07-14T19:10:29.511Z,45.10
2018-07-14T19:12:58.572Z,45.00
2018-07-14T19:15:27.649Z,45.70
2018-07-14T19:17:56.700Z,45.80
2018-07-14T19:20:25.780Z,47.10
2018-07-14T19:22:54.889Z,47.20
2018-07-14T19:25:24.016Z,48.40
2018-07-14T19:30:21.824Z,50.50
2018-07-14T19:32:50.883Z,50.70
2018-07-14T19:35:19.956Z,51.40
2018-07-14T19:37:49.070Z,52.50
2018-07-14T19:40:18.462Z,53.30
2018-07-14T19:42:47.534Z,54.40
2018-07-14T19:45:16.612Z,54.50
2018-07-14T19:47:45.675Z,55.00
2018-07-14T19:50:14.749Z,55.30
2018-07-14T19:52:43.807Z,56.50
2018-07-14T19:55:12.896Z,56.40
2018-07-14T19:57:41.948Z,56.90
2018-07-14T20:00:11.009Z,57.60
2018-07-14T20:02:40.084Z,57.80
2018-07-14T20:05:09.145Z,58.00
2018-07-14T20:07:38.224Z,58.50
2018-07-14T20:10:07.312Z,59.00
2018-07-14T20:12:36.412Z,59.40
2018-07-14T20:15:05.480Z,59.20
2018-07-14T20:17:34.552Z,60.20
2018-07-14T20:20:03.596Z,60.10
2018-07-14T20:22:32.656Z,59.80
2018-07-14T20:25:01.702Z,60.10
2018-07-14T20:27:30.775Z,60.50
2018-07-14T20:29:59.834Z,59.60
2018-07-14T20:32:28.909Z,60.30
2018-07-14T20:37:26.709Z,61.50
2018-07-14T20:39:55.752Z,61.40
2018-07-14T20:42:24.815Z,61.90
2018-07-14T20:44:53.856Z,60.80
2018-07-14T20:47:22.920Z,61.30
2018-07-14T20:49:51.960Z,61.50
2018-07-14T20:52:21.042Z,62.40
2018-07-14T20:54:50.388Z,62.80
2018-07-14T20:57:19.456Z,61.40
2018-07-14T20:59:48.499Z,62.60
2018-07-14T21:02:17.652Z,62.10
2018-07-14T21:04:46.688Z,62.80
2018-07-14T21:07:15.768Z,62.80
2018-07-14T21:09:44.844Z,63.60
2018-07-14T21:14:42.612Z,64.00
2018-07-14T21:17:11.708Z,64.50
2018-07-14T21:19:40.776Z,63.70
2018-07-14T21:22:09.844Z,63.70
2018-07-14T21:24:38.952Z,62.80
2018-07-14T21:27:08.077Z,62.70
2018-07-14T21:29:37.156Z,62.80
2018-07-14T21:32:06.312Z,63.80
2018-07-14T21:37:04.108Z,65.70
2018-07-14T21:39:33.339Z,66.20
2018-07-14T21:42:02.400Z,65.80
2018-07-14T21:44:31.480Z,66.80
2018-07-14T21:47:00.544Z,67.10
2018-07-14T21:49:29.623Z,66.60
2018-07-14T21:51:58.697Z,67.60
2018-07-14T21:54:27.784Z,67.40
2018-07-14T21:56:56.848Z,66.50
2018-07-14T21:59:25.936Z,67.00
2018-07-14T22:04:23.716Z,67.10
2018-07-14T22:06:53.048Z,67.30
2018-07-14T22:09:22.136Z,66.60
2018-07-14T22:16:48.597Z,66.50
2018-07-14T22:19:17.660Z,66.30
2018-07-14T22:21:46.711Z,66.90
2018-07-14T22:24:15.780Z,66.60
2018-07-14T22:26:44.827Z,66.00
2018-07-14T22:29:13.914Z,65.60
2018-07-14T22:31:42.948Z,65.50
2018-07-14T22:34:12.032Z,66.40
2018-07-14T22:36:41.084Z,67.00
2018-07-14T22:41:38.823Z,66.60
2018-07-14T22:44:07.892Z,66.30
2018-07-14T22:46:36.943Z,66.50
2018-07-14T22:54:03.760Z,66.40
2018-07-14T22:56:32.823Z,66.00
2018-07-14T23:01:30.604Z,66.50
2018-07-14T23:06:29.166Z,67.90
2018-07-14T23:08:58.440Z,67.10
2018-07-14T23:11:27.500Z,67.30
2018-07-14T23:16:25.760Z,67.10
2018-07-14T23:18:54.800Z,67.10
2018-07-14T23:21:23.868Z,67.30
2018-07-14T23:23:52.930Z,67.80
2018-07-14T23:26:22.139Z,68.00
2018-07-14T23:28:51.182Z,68.20
2018-07-14T23:36:17.612Z,68.80
2018-07-14T23:38:46.660Z,69.20
2018-07-14T23:43:44.412Z,69.20
2018-07-14T23:46:13.476Z,69.10
2018-07-14T23:48:42.537Z,68.80
2018-07-14T23:51:11.605Z,69.00
2018-07-14T23:53:40.647Z,68.70
2018-07-14T23:56:09.718Z,69.10
2018-07-14T23:58:39.188Z,69.60
